Time;durP1;ratioP1;P1;durP2;ratioP2;P2;SDS_P1;SDS_P2;PMS_P1;PMS_P2;Temp;Humidity;BMP_temperature;BMP_pressure;BME280_temperature;BME280_humidity;BME280_pressure;Samples;Min_cycle;Max_cycle;Signal;HPM_P1;HPM_P2
2021/04/14 00:01:12;;;;;;;11.30;6.30;;;10.60;86.00;;;12.20;44.97;102685.56;4949031;28;99352;-56
2021/04/14 00:03:38;;;;;;;5.30;4.13;;;10.60;85.60;;;12.11;45.63;102693.56;4946467;28;97299;-53
2021/04/14 00:06:06;;;;;;;11.33;5.97;;;10.50;85.50;;;12.02;45.20;102696.31;4930715;28;99788;-52
2021/04/14 00:08:33;;;;;;;11.77;6.17;;;10.40;86.10;;;11.89;45.87;102690.28;4928977;28;98332;-55
2021/04/14 00:11:00;;;;;;;10.33;6.27;;;10.20;87.80;;;11.82;45.87;102691.19;4925293;28;97655;-55
2021/04/14 00:13:33;;;;;;;7.00;4.20;;;10.20;87.30;;;11.74;46.45;102686.84;4929659;28;98685;-54
2021/04/14 00:16:00;;;;;;;11.30;6.37;;;10.10;87.90;;;11.71;46.02;102689.50;4926324;28;99185;-54
2021/04/14 00:18:27;;;;;;;5.70;4.37;;;10.00;87.90;;;11.65;46.34;102695.72;4920032;28;98073;-54
2021/04/14 00:20:53;;;;;;;6.17;4.23;;;10.00;87.50;;;11.55;46.92;102689.63;4929808;28;97437;-56
2021/04/14 00:23:22;;;;;;;9.23;5.47;;;9.90;88.40;;;11.54;47.02;102687.88;4937894;28;98640;-52
2021/04/14 00:25:48;;;;;;;7.70;4.93;;;9.90;89.30;;;11.56;47.04;102686.09;4944752;28;98133;-54
2021/04/14 00:28:17;;;;;;;9.93;6.43;;;10.00;89.20;;;11.60;47.02;102685.19;4949513;28;97019;-53
2021/04/14 00:30:43;;;;;;;5.70;3.87;;;10.10;89.70;;;11.64;47.05;102678.09;4948316;28;97680;-54
2021/04/14 00:33:10;;;;;;;6.97;6.17;;;10.20;89.40;;;11.65;46.75;102677.22;4949279;28;98168;-55
2021/04/14 00:35:36;;;;;;;11.70;6.13;;;10.10;87.90;;;11.68;46.71;102685.13;4945652;28;98363;-55
2021/04/14 00:38:01;;;;;;;6.83;4.97;;;10.20;87.80;;;11.67;46.74;102682.47;4945993;28;106911;-54
2021/04/14 00:40:30;;;;;;;9.87;7.27;;;10.10;87.20;;;11.60;46.15;102682.56;4951179;28;99916;-54
2021/04/14 00:42:58;;;;;;;8.23;5.83;;;10.00;87.80;;;11.56;46.67;102683.44;4952521;28;98342;-54
2021/04/14 00:45:25;;;;;;;12.63;7.50;;;9.90;87.90;;;11.52;46.71;102676.44;4951755;28;97456;-59
2021/04/14 00:47:51;;;;;;;11.07;6.97;;;9.90;89.10;;;11.54;46.75;102687.88;4943779;28;100239;-55
2021/04/14 00:50:22;;;;;;;9.50;6.73;;;10.00;88.10;;;11.45;46.21;102687.94;4954708;28;97104;-55
2021/04/14 00:52:48;;;;;;;13.97;6.90;;;9.80;87.50;;;11.43;47.16;102689.72;4938039;28;102643;-55
2021/04/14 00:55:19;;;;;;;6.63;5.37;;;9.80;88.70;;;11.39;47.07;102687.97;4950365;28;102226;-53
2021/04/14 00:57:45;;;;;;;10.73;7.17;;;9.70;88.50;;;11.38;46.71;102688.88;4933768;28;98154;-55
2021/04/14 01:00:36;;;;;;;7.83;5.90;;;9.80;87.90;;;11.37;46.99;102694.16;4968523;28;97578;-55
2021/04/14 01:03:07;;;;;;;9.80;5.87;;;9.70;87.60;;;11.32;47.34;102694.22;4946321;28;103147;-54
2021/04/14 01:05:36;;;;;;;6.43;4.30;;;9.70;88.60;;;11.33;47.50;102694.19;4947331;28;97949;-54
2021/04/14 01:08:06;;;;;;;5.77;4.80;;;9.70;89.10;;;11.36;47.17;102693.28;4954121;28;97597;-56
2021/04/14 01:10:33;;;;;;;6.50;4.83;;;9.70;88.30;;;11.30;47.39;102693.34;4946029;28;99734;-52
2021/04/14 01:13:02;;;;;;;8.97;5.83;;;9.60;88.00;;;11.27;47.54;102690.69;4956120;28;97104;-54
2021/04/14 01:15:39;;;;;;;4.93;3.43;;;9.60;88.30;;;11.31;47.55;102695.97;4941274;28;97951;-54
2021/04/14 01:18:09;;;;;;;6.43;4.00;;;9.70;88.00;;;11.29;47.69;102687.19;4970926;28;97083;-56
2021/04/14 01:20:36;;;;;;;5.17;4.50;;;9.60;89.50;;;11.32;47.63;102683.63;4960156;28;97976;-55
2021/04/14 01:23:03;;;;;;;7.17;4.30;;;9.70;88.10;;;11.36;47.60;102677.44;4936957;28;97156;-54
2021/04/14 01:25:35;;;;;;;13.67;5.80;;;9.70;90.40;;;11.40;47.18;102684.44;4919821;28;100611;-55
2021/04/14 01:28:15;;;;;;;9.87;5.87;;;9.80;88.20;;;11.44;47.36;102675.63;4952366;28;98468;-56
2021/04/14 01:30:42;;;;;;;10.83;5.33;;;9.90;89.30;;;11.44;46.97;102682.69;4946083;28;97710;-53
2021/04/14 01:33:09;;;;;;;6.57;4.40;;;9.80;88.10;;;11.43;47.31;102681.81;4933274;28;98639;-55
2021/04/14 01:35:35;;;;;;;9.97;6.60;;;9.80;89.10;;;11.44;47.26;102680.91;4943275;28;97645;-55
2021/04/14 01:38:01;;;;;;;9.07;4.63;;;9.80;89.60;;;11.43;46.93;102679.16;4965954;28;98596;-55
2021/04/14 01:40:28;;;;;;;9.13;5.33;;;9.70;87.60;;;11.38;47.47;102680.94;4963984;28;98220;-54
2021/04/14 01:42:55;;;;;;;5.47;4.47;;;9.60;88.20;;;11.37;47.49;102684.47;4935780;28;99191;-56
2021/04/14 01:45:40;;;;;;;8.80;6.07;;;9.60;89.80;;;11.44;47.51;102685.31;4944137;28;97758;-55
2021/04/14 01:48:08;;;;;;;7.73;5.53;;;9.80;90.20;;;11.42;47.18;102677.38;4945648;28;97639;-55
2021/04/14 01:50:35;;;;;;;6.40;5.20;;;9.70;88.80;;;11.47;47.04;102672.06;4943361;28;100354;-54
2021/04/14 01:53:02;;;;;;;8.37;4.90;;;9.80;89.30;;;11.42;47.17;102682.66;4932688;28;97292;-53
2021/04/14 01:55:29;;;;;;;10.20;6.13;;;9.60;87.60;;;11.38;46.95;102680.94;4942733;28;97959;-54
2021/04/14 01:57:56;;;;;;;9.93;6.40;;;9.60;89.00;;;11.36;47.59;102677.44;4937909;28;97164;-55
2021/04/14 02:00:32;;;;;;;6.27;3.77;;;9.50;89.40;;;11.42;47.53;102684.44;4929971;28;97462;-54
2021/04/14 02:03:00;;;;;;;7.43;4.30;;;9.70;90.40;;;11.47;47.24;102686.16;4948356;28;102241;-53
2021/04/14 02:05:31;;;;;;;4.63;4.20;;;9.90;89.30;;;11.47;47.05;102680.00;4941004;28;97742;-58
2021/04/14 02:07:57;;;;;;;8.53;5.43;;;9.80;88.40;;;11.50;47.31;102680.84;4955356;28;97295;-54
2021/04/14 02:10:26;;;;;;;9.80;5.80;;;9.90;89.10;;;11.50;47.13;102685.25;4966425;28;97122;-52
2021/04/14 02:12:53;;;;;;;5.77;3.73;;;9.80;89.40;;;11.55;47.18;102684.34;4930045;28;102456;-55
2021/04/14 02:15:26;;;;;;;7.53;5.10;;;10.00;89.00;;;11.59;46.83;102680.78;4946030;28;96836;-52
2021/04/14 02:17:53;;;;;;;8.50;6.30;;;10.00;88.30;;;11.56;46.17;102678.16;4943051;28;97415;-54
2021/04/14 02:20:21;;;;;;;10.00;6.50;;;9.90;86.10;;;11.52;46.05;102673.78;4964759;28;96935;-55
2021/04/14 02:22:47;;;;;;;7.57;5.20;;;9.80;87.30;;;11.45;46.68;102677.38;4965261;28;97349;-55
2021/04/14 02:25:15;;;;;;;5.33;4.33;;;9.70;87.10;;;11.40;47.06;102671.22;4953847;28;97008;-54
2021/04/14 02:27:41;;;;;;;6.43;4.00;;;9.60;88.20;;;11.39;47.18;102671.25;4944285;28;97330;-55
2021/04/14 02:30:31;;;;;;;6.20;3.77;;;9.70;89.50;;;11.44;47.29;102677.41;4932725;28;100088;-55
2021/04/14 02:32:57;;;;;;;7.50;4.67;;;9.80;89.70;;;11.41;47.25;102670.34;4942569;28;96918;-55
2021/04/14 02:35:24;;;;;;;6.43;4.37;;;9.80;88.60;;;11.44;46.60;102664.19;4954630;28;97174;-55
2021/04/14 02:37:51;;;;;;;5.20;4.57;;;9.80;87.00;;;11.44;47.11;102667.69;4943359;28;103344;-54
2021/04/14 02:40:19;;;;;;;3.97;3.47;;;9.70;88.00;;;11.43;47.27;102672.97;4948552;28;98155;-55
2021/04/14 02:42:46;;;;;;;4.10;3.30;;;9.70;88.40;;;11.48;47.20;102657.97;4939990;28;98934;-55
2021/04/14 02:45:14;;;;;;;5.97;3.90;;;10.00;89.90;;;11.58;46.79;102668.47;4949793;28;97495;-53
2021/04/14 02:47:40;;;;;;;5.87;3.70;;;10.30;91.40;;;11.71;46.59;102655.13;4962926;28;96950;-52
2021/04/14 02:50:08;;;;;;;7.07;4.20;;;10.50;87.00;;;11.76;46.17;102666.56;4949692;28;98603;-53
2021/04/14 02:52:34;;;;;;;4.83;3.33;;;10.40;85.00;;;11.77;46.46;102660.38;4965404;28;98268;-56
2021/04/14 02:55:00;;;;;;;4.17;3.40;;;10.30;88.20;;;11.81;46.25;102659.47;4960372;28;96905;-54
2021/04/14 02:57:26;;;;;;;3.60;3.30;;;10.40;87.50;;;11.84;46.29;102654.16;4954536;28;97365;-54
2021/04/14 02:59:53;;;;;;;7.50;3.80;;;10.40;88.00;;;11.88;46.34;102662.06;4942034;28;98383;-55
2021/04/14 03:02:21;;;;;;;5.23;3.23;;;10.50;85.80;;;11.92;46.24;102662.91;4954167;28;97442;-54
2021/04/14 03:04:47;;;;;;;4.20;3.00;;;10.50;88.80;;;11.98;45.85;102652.25;4946857;28;100542;-52
2021/04/14 03:07:13;;;;;;;6.17;4.00;;;10.70;88.00;;;12.05;45.84;102659.25;4953027;28;97092;-55
2021/04/14 03:09:39;;;;;;;4.30;3.30;;;10.80;87.20;;;12.08;45.53;102659.22;4965497;28;97400;-54
2021/04/14 03:12:08;;;;;;;5.30;4.27;;;10.80;84.70;;;12.07;45.31;102646.88;4965955;28;99688;-53
2021/04/14 03:14:33;;;;;;;5.30;4.30;;;10.60;84.00;;;12.00;45.09;102652.25;4934050;28;97440;-54
2021/04/14 03:17:00;;;;;;;4.97;4.27;;;10.40;83.70;;;11.89;45.43;102639.16;4961202;28;97429;-54
2021/04/14 03:19:27;;;;;;;7.43;4.73;;;10.20;84.30;;;11.81;45.91;102648.91;4971320;28;97671;-55
2021/04/14 03:21:53;;;;;;;6.00;3.80;;;10.00;86.40;;;11.77;46.29;102644.50;4947860;28;98846;-55
2021/04/14 03:24:19;;;;;;;7.03;4.17;;;10.00;87.30;;;11.75;46.23;102648.94;4947769;28;97399;-55
2021/04/14 03:26:44;;;;;;;6.20;4.03;;;10.00;85.70;;;11.69;46.55;102644.56;4931410;28;100120;-54
2021/04/14 03:29:10;;;;;;;5.60;4.27;;;10.00;88.10;;;11.68;46.55;102641.94;4968752;28;97492;-52
2021/04/14 03:31:36;;;;;;;5.37;3.67;;;10.00;86.50;;;11.68;46.70;102641.94;4953076;28;97409;-58
2021/04/14 03:34:03;;;;;;;6.27;3.57;;;10.10;88.10;;;11.67;46.42;102640.19;4949418;28;98066;-56
2021/04/14 03:36:29;;;;;;;5.50;4.00;;;10.00;85.30;;;11.62;46.74;102635.81;4954399;28;97236;-53
2021/04/14 03:38:55;;;;;;;5.43;3.67;;;9.90;86.40;;;11.62;46.74;102643.75;4964646;28;98382;-52
2021/04/14 03:41:20;;;;;;;4.70;3.80;;;9.90;87.10;;;11.67;46.59;102645.47;4936412;28;99432;-52
2021/04/14 03:43:47;;;;;;;6.77;4.20;;;10.00;86.60;;;11.65;46.45;102640.19;4964895;28;97014;-52
2021/04/14 03:46:15;;;;;;;4.23;3.70;;;10.00;86.70;;;11.61;46.61;102647.28;4952217;28;103459;-55
2021/04/14 03:48:41;;;;;;;4.97;3.73;;;9.80;86.20;;;11.60;46.82;102636.72;4949280;28;99788;-55
2021/04/14 03:51:07;;;;;;;4.83;3.73;;;9.80;87.30;;;11.60;46.91;102640.25;4969736;28;98123;-53
2021/04/14 03:53:37;;;;;;;6.53;3.80;;;9.90;89.10;;;11.62;46.58;102633.19;4958445;28;97141;-53
2021/04/14 03:56:09;;;;;;;4.63;3.73;;;10.00;88.40;;;11.67;46.55;102637.53;4945615;28;97254;-52
2021/04/14 03:58:37;;;;;;;4.90;3.77;;;10.10;85.60;;;11.68;46.52;102639.28;4972907;28;96620;-54
2021/04/14 04:01:09;;;;;;;5.77;3.80;;;10.00;86.10;;;11.70;46.52;102646.31;4963365;28;104487;-55
2021/04/14 04:03:35;;;;;;;4.57;3.53;;;10.20;85.90;;;11.72;46.61;102641.03;4974773;28;96841;-56
2021/04/14 04:06:02;;;;;;;6.30;3.93;;;10.20;88.50;;;11.76;46.12;102641.00;4962119;28;100002;-55
2021/04/14 04:08:28;;;;;;;5.83;3.90;;;10.30;85.80;;;11.79;46.31;102640.13;4953491;28;100266;-55
2021/04/14 04:10:54;;;;;;;4.57;3.03;;;10.30;85.10;;;11.79;46.34;102635.69;4943532;28;98156;-54
2021/04/14 04:13:20;;;;;;;3.93;3.10;;;10.30;87.40;;;11.83;46.04;102637.41;4950749;28;97501;-54
2021/04/14 04:15:46;;;;;;;3.83;3.10;;;10.40;87.50;;;11.89;46.06;102639.16;4951390;28;96827;-55
2021/04/14 04:18:12;;;;;;;4.93;3.20;;;10.50;86.20;;;11.88;46.11;102634.75;4952550;28;97154;-54
2021/04/14 04:20:38;;;;;;;4.07;2.70;;;10.40;86.00;;;11.91;46.05;102643.53;4957317;28;96896;-55
2021/04/14 04:23:05;;;;;;;5.17;3.17;;;10.50;88.20;;;11.99;45.82;102646.06;4956067;28;97331;-55
2021/04/14 04:25:32;;;;;;;4.43;3.13;;;10.70;87.10;;;12.02;45.58;102639.91;4971957;28;97654;-55
2021/04/14 04:27:59;;;;;;;6.17;3.30;;;10.60;83.50;;;11.99;46.02;102638.13;4940173;28;99610;-52
2021/04/14 04:30:27;;;;;;;9.07;4.00;;;10.40;86.20;;;12.00;45.78;102645.19;4955017;28;97298;-53
2021/04/14 04:32:52;;;;;;;4.40;3.47;;;10.50;86.20;;;12.00;45.52;102642.53;4947292;28;98063;-56
2021/04/14 04:35:20;;;;;;;4.33;2.93;;;10.50;86.90;;;11.97;45.42;102637.28;4971261;28;97005;-55
2021/04/14 04:37:46;;;;;;;4.30;3.20;;;10.40;84.20;;;11.92;45.39;102636.47;4944418;28;100410;-53
2021/04/14 04:40:13;;;;;;;4.97;3.10;;;10.20;85.50;;;11.84;45.92;102635.66;4966773;28;98518;-56
2021/04/14 04:42:39;;;;;;;3.97;3.17;;;10.10;86.60;;;11.78;46.02;102633.03;4965110;28;97111;-54
2021/04/14 04:45:08;;;;;;;5.33;3.70;;;10.10;87.70;;;11.76;45.84;102634.84;4950152;28;97458;-55
2021/04/14 04:47:35;;;;;;;5.10;3.60;;;10.10;87.20;;;11.76;46.04;102640.13;4948872;28;99694;-55
2021/04/14 04:50:00;;;;;;;6.57;3.20;;;10.10;86.70;;;11.69;46.27;102633.13;4947556;28;99576;-52
2021/04/14 04:52:27;;;;;;;4.13;3.23;;;10.00;87.10;;;11.64;46.29;102630.53;4946556;28;98792;-55
2021/04/14 04:54:53;;;;;;;4.40;2.60;;;9.90;88.30;;;11.71;46.33;102631.31;4944606;28;97512;-55
2021/04/14 04:57:19;;;;;;;2.80;2.33;;;10.30;92.80;;;11.84;46.24;102638.28;4949978;28;100403;-52
2021/04/14 04:59:45;;;;;;;5.50;2.57;;;10.80;90.40;;;11.96;45.83;102638.19;4946075;28;107831;-55
2021/04/14 05:02:13;;;;;;;4.57;3.43;;;10.90;86.30;;;12.01;44.37;102646.97;4933639;28;97015;-55
2021/04/14 05:04:39;;;;;;;3.37;2.67;;;10.80;83.70;;;11.95;45.26;102648.78;4943515;28;97562;-53
2021/04/14 05:07:05;;;;;;;4.27;3.10;;;10.50;84.10;;;11.85;45.91;102640.91;4966481;28;97677;-53
2021/04/14 05:09:31;;;;;;;3.07;2.33;;;10.30;87.10;;;11.84;45.93;102648.88;4949037;28;97620;-55
2021/04/14 05:11:57;;;;;;;4.47;2.90;;;10.30;90.10;;;11.85;45.90;102650.63;4932608;28;97052;-55
2021/04/14 05:14:23;;;;;;;4.63;2.60;;;10.40;88.30;;;11.93;45.85;102659.38;4966413;28;97022;-53
2021/04/14 05:16:49;;;;;;;3.53;2.33;;;10.60;89.30;;;11.98;45.86;102659.31;4944330;28;97508;-55
2021/04/14 05:19:15;;;;;;;3.87;2.47;;;10.70;87.20;;;12.05;45.93;102659.25;4945052;28;103964;-56
2021/04/14 05:21:41;;;;;;;4.77;3.10;;;10.90;89.50;;;12.13;45.43;102662.69;4962504;28;97247;-53
2021/04/14 05:24:11;;;;;;;4.43;2.67;;;10.90;85.60;;;12.16;45.41;102657.38;4945621;28;97313;-55
2021/04/14 05:26:37;;;;;;;4.20;2.60;;;10.90;89.50;;;12.21;45.41;102666.13;4948237;28;99249;-58
2021/04/14 05:29:04;;;;;;;2.97;2.67;;;10.90;87.50;;;12.27;45.34;102659.00;4945524;28;102383;-56
2021/04/14 05:31:32;;;;;;;3.73;2.30;;;11.10;86.70;;;12.37;45.09;102658.03;4966211;28;97330;-55
2021/04/14 05:34:01;;;;;;;3.23;2.30;;;11.40;89.30;;;12.53;44.96;102662.25;4926348;28;97797;-54
2021/04/14 05:36:28;;;;;;;4.00;2.40;;;11.70;88.90;;;12.71;44.61;102662.00;4971416;28;96988;-54
2021/04/14 05:38:54;;;;;;;3.00;2.37;;;12.00;88.70;;;12.85;44.06;102658.31;4964270;28;97500;-56
2021/04/14 05:41:21;;;;;;;4.27;2.70;;;12.20;87.70;;;12.89;43.80;102668.88;4949455;28;98086;-55
2021/04/14 05:43:48;;;;;;;2.40;2.20;;;12.10;81.90;;;12.93;43.68;102667.03;4943436;28;98237;-54
2021/04/14 05:46:17;;;;;;;3.40;2.50;;;12.00;88.70;;;13.03;43.52;102668.66;4963578;28;100325;-55
2021/04/14 05:48:46;;;;;;;4.70;2.30;;;12.20;86.50;;;13.08;43.30;102666.81;4944551;28;99435;-52
2021/04/14 05:51:18;;;;;;;8.47;4.10;;;12.20;86.50;;;13.06;42.62;102668.63;4944647;28;98088;-55
2021/04/14 05:53:47;;;;;;;3.47;2.57;;;12.00;82.00;;;13.01;43.63;102686.34;4949506;28;97342;-55
2021/04/14 05:56:14;;;;;;;2.93;2.30;;;11.70;83.20;;;12.93;43.75;102672.34;4946993;28;98651;-51
2021/04/14 05:58:40;;;;;;;2.27;1.90;;;11.60;86.70;;;12.90;44.00;102672.38;4949287;28;97048;-53
2021/04/14 06:01:10;;;;;;;8.77;3.00;;;11.60;87.30;;;12.89;43.48;102678.59;4945086;28;97137;-50
2021/04/14 06:03:35;;;;;;;5.60;3.87;;;11.60;84.10;;;12.89;43.27;102675.94;4954379;28;98202;-51
2021/04/14 06:06:01;;;;;;;5.03;3.30;;;11.60;83.60;;;12.76;43.36;102681.38;4940127;28;108957;-54
2021/04/14 06:08:29;;;;;;;2.97;1.90;;;11.40;82.90;;;12.75;44.16;102676.09;4952201;28;97875;-55
2021/04/14 06:10:57;;;;;;;4.03;2.23;;;11.40;88.10;;;12.79;44.03;102676.03;4935551;28;97588;-54
2021/04/14 06:13:23;;;;;;;6.90;3.40;;;11.70;90.40;;;12.88;43.66;102668.88;4966650;28;97118;-55
2021/04/14 06:15:49;;;;;;;4.80;3.00;;;12.00;85.00;;;12.96;43.79;102677.59;4933198;28;99559;-54
2021/04/14 06:18:14;;;;;;;6.13;3.43;;;12.00;85.00;;;12.91;43.07;102674.13;4967204;28;97764;-55
2021/04/14 06:20:40;;;;;;;2.50;2.00;;;11.80;81.70;;;12.91;43.67;102679.44;4944015;28;98824;-55
2021/04/14 06:23:16;;;;;;;4.67;2.23;;;11.80;90.00;;;12.82;43.72;102686.59;4947487;28;97172;-53
2021/04/14 06:26:12;;;;;;;6.00;3.10;;;11.60;84.80;;;12.77;43.13;102683.13;4934071;28;97945;-54
2021/04/14 06:28:39;;;;;;;6.13;3.80;;;11.50;84.60;;;12.44;43.10;102688.81;4866148;28;99801;-56
2021/04/14 06:31:09;;;;;;;3.70;2.60;;;11.00;84.30;;;12.60;44.30;102682.47;4956284;28;96830;-54
2021/04/14 06:33:38;;;;;;;2.83;2.07;;;11.40;90.10;;;12.86;43.97;102687.41;4944272;28;99771;-56
2021/04/14 06:36:07;;;;;;;4.77;3.00;;;12.00;90.40;;;13.01;41.72;102694.28;4944578;28;102288;-54
2021/04/14 06:38:35;;;;;;;4.07;3.37;;;12.50;80.50;;;12.97;43.23;102695.22;4932564;28;98073;-52
2021/04/14 06:41:48;;;;;;;3.00;1.80;;;12.20;80.40;;;13.01;43.62;102694.28;4946304;28;97379;-55
2021/04/14 06:44:30;;;;;;;2.40;2.00;;;12.10;86.10;;;13.08;43.47;102698.63;4934356;28;97489;-52
2021/04/14 06:46:57;;;;;;;5.70;2.97;;;12.20;89.80;;;12.98;43.39;102697.84;4945150;28;98127;-55
2021/04/14 06:49:40;;;;;;;8.03;4.07;;;12.00;82.60;;;12.88;41.11;102695.38;4952969;28;100228;-54
2021/04/14 06:52:15;;;;;;;5.30;2.53;;;11.80;82.00;;;12.85;43.59;102695.38;4931063;28;99144;-54
2021/04/14 06:55:14;;;;;;;3.93;2.17;;;11.70;85.20;;;12.84;43.69;102699.81;4945656;28;97412;-56
2021/04/14 06:57:47;;;;;;;3.80;2.77;;;11.70;85.50;;;12.90;43.97;102698.88;4922544;28;99868;-53
2021/04/14 07:00:38;;;;;;;2.93;1.90;;;11.90;87.80;;;13.02;43.69;102709.31;4934209;28;97116;-52
2021/04/14 07:03:30;;;;;;;3.63;2.10;;;12.00;88.00;;;13.14;43.39;102703.81;4940667;28;99910;-53
2021/04/14 07:06:00;;;;;;;7.20;3.47;;;12.40;87.30;;;13.16;43.06;102702.03;4944804;28;97038;-55
2021/04/14 07:08:32;;;;;;;2.47;1.90;;;12.40;81.80;;;13.23;43.13;102709.03;4945662;28;99028;-54
2021/04/14 07:11:01;;;;;;;9.00;4.43;;;12.40;84.20;;;13.35;42.99;102697.38;4938087;28;100499;-55
2021/04/14 07:13:31;;;;;;;3.87;2.30;;;12.70;85.90;;;13.63;42.65;102700.50;4962834;28;99479;-54
2021/04/14 07:16:21;;;;;;;2.90;1.67;;;13.20;84.10;;;14.11;41.62;102695.22;4944399;28;98681;-54
2021/04/14 07:18:59;;;;;;;2.13;1.67;;;13.90;84.30;;;14.32;41.17;102694.84;4942468;28;102251;-54
2021/04/14 07:21:34;;;;;;;2.00;1.77;;;14.30;82.70;;;14.36;40.99;102693.88;4973430;28;97029;-53
2021/04/14 07:24:05;;;;;;;3.07;2.13;;;14.30;81.50;;;14.54;40.43;102696.19;4942213;28;96979;-55
2021/04/14 07:26:46;;;;;;;3.77;1.70;;;14.50;81.00;;;14.73;40.24;102685.19;4954407;28;97453;-55
2021/04/14 07:29:38;;;;;;;1.63;1.50;;;14.70;80.80;;;14.91;39.90;102690.13;4959234;28;102695;-55
2021/04/14 07:32:32;;;;;;;3.90;2.80;;;15.00;76.40;;;14.94;39.68;102692.72;4966933;28;101205;-55
2021/04/14 07:35:39;;;;;;;2.57;1.80;;;14.90;78.30;;;15.03;39.70;102689.84;4958624;28;96986;-56
2021/04/14 07:38:29;;;;;;;4.97;2.97;;;15.00;79.10;;;14.93;39.64;102693.63;4965332;28;97113;-55
2021/04/14 07:41:05;;;;;;;6.27;3.40;;;14.80;73.80;;;14.73;39.61;102695.81;4957323;28;99072;-55
2021/04/14 07:44:08;;;;;;;1.50;1.37;;;14.30;74.00;;;14.69;39.82;102695.00;4954165;28;98468;-54
2021/04/14 07:46:41;;;;;;;2.83;1.97;;;14.20;81.40;;;14.49;40.16;102700.75;4921501;28;98830;-51
2021/04/14 07:49:08;;;;;;;4.60;1.50;;;13.90;77.50;;;14.50;40.49;102704.28;4951919;28;98270;-56
2021/04/14 07:51:34;;;;;;;8.33;4.10;;;14.00;82.20;;;14.49;39.95;102708.72;4948154;28;97791;-55
2021/04/14 07:54:13;;;;;;;9.33;4.03;;;14.10;75.10;;;14.38;40.40;102710.66;4968168;28;97962;-53
2021/04/14 07:56:47;;;;;;;5.93;4.17;;;13.70;75.50;;;14.17;41.08;102706.59;4944396;28;97690;-55
2021/04/14 07:59:28;;;;;;;8.43;5.10;;;13.40;77.60;;;13.87;37.64;102713.31;4956827;28;98143;-54
2021/04/14 08:02:06;;;;;;;10.47;6.10;;;13.20;74.70;;;13.40;36.95;102706.13;4947278;28;100624;-54
2021/04/14 08:04:40;;;;;;;7.33;5.33;;;12.70;74.60;;;13.27;40.43;102708.09;4955045;28;100418;-54
2021/04/14 08:07:18;;;;;;;7.03;5.43;;;12.40;77.40;;;12.85;37.88;102711.28;4933336;28;97473;-55
2021/04/14 08:10:12;;;;;;;9.63;4.87;;;12.10;76.60;;;12.38;38.31;102704.78;4938940;28;97568;-53
2021/04/14 08:13:03;;;;;;;7.80;5.43;;;11.70;78.30;;;12.07;40.60;102699.78;4958129;28;98352;-61
2021/04/14 08:15:39;;;;;;;10.23;6.30;;;11.30;80.40;;;11.86;40.52;102705.25;4946310;28;102764;-54
2021/04/14 08:18:17;;;;;;;9.20;5.43;;;11.20;80.90;;;12.19;44.07;102710.25;4928263;28;97700;-54
2021/04/14 08:20:48;;;;;;;9.80;6.10;;;11.60;87.30;;;12.09;39.93;102698.00;4942690;28;97640;-55
2021/04/14 08:23:27;;;;;;;9.30;5.90;;;11.70;79.30;;;11.88;40.08;102698.22;4947952;28;97631;-54
2021/04/14 08:25:56;;;;;;;6.73;5.30;;;11.50;80.90;;;11.35;40.15;102702.09;4940591;28;97845;-55
2021/04/14 08:28:30;;;;;;;8.53;4.93;;;10.90;80.40;;;11.34;44.47;102705.63;4948302;28;97375;-52
2021/04/14 08:31:20;;;;;;;13.43;6.83;;;10.80;89.00;;;11.24;42.47;102710.09;4946124;28;97454;-53
2021/04/14 08:33:49;;;;;;;13.97;6.83;;;10.90;84.90;;;10.72;44.36;102715.66;4951042;28;97200;-54
2021/04/14 08:36:30;;;;;;;10.83;6.93;;;10.40;87.80;;;10.32;44.76;102700.81;4929070;28;97459;-55
2021/04/14 08:38:55;;;;;;;14.43;8.00;;;10.00;88.20;;;10.34;45.37;102704.31;4946750;28;96999;-54
2021/04/14 08:41:30;;;;;;;11.63;8.33;;;10.00;89.50;;;10.28;46.20;102715.78;4969841;28;97558;-54
2021/04/14 08:44:17;;;;;;;13.93;8.97;;;10.00;90.70;;;10.18;45.37;102710.47;4965305;28;97839;-54
2021/04/14 08:46:43;;;;;;;11.83;8.63;;;9.90;89.20;;;10.10;45.09;102708.69;4946945;28;98865;-54
2021/04/14 08:49:24;;;;;;;13.47;8.40;;;9.80;88.80;;;10.06;46.12;102706.09;4938209;28;96942;-53
2021/04/14 08:51:53;;;;;;;11.63;7.73;;;9.90;90.00;;;10.04;45.52;102715.75;4926581;28;106098;-55
2021/04/14 08:54:27;;;;;;;10.23;7.47;;;9.80;89.30;;;10.16;45.21;102707.84;4947180;28;97815;-55
2021/04/14 08:56:54;;;;;;;8.97;7.60;;;9.90;89.30;;;10.64;44.87;102716.53;4948491;28;100285;-56
2021/04/14 08:59:21;;;;;;;8.90;6.53;;;10.50;89.40;;;10.79;44.93;102712.97;4946140;28;97751;-55
2021/04/14 09:01:52;;;;;;;10.60;6.27;;;10.60;89.10;;;10.74;45.14;102715.63;4941801;28;97595;-55
2021/04/14 09:04:20;;;;;;;11.63;6.53;;;10.50;88.20;;;10.58;45.26;102721.84;4964219;28;98510;-55
2021/04/14 09:06:48;;;;;;;11.47;6.60;;;10.30;89.70;;;10.79;44.64;102716.47;4931772;28;96843;-55
2021/04/14 09:09:25;;;;;;;6.43;3.87;;;10.60;89.20;;;11.10;46.81;102706.66;4946560;28;100349;-54
2021/04/14 09:12:05;;;;;;;11.33;7.03;;;10.80;90.50;;;11.29;45.46;102713.59;4965310;28;97164;-53
2021/04/14 09:14:33;;;;;;;11.77;6.83;;;11.00;88.90;;;11.27;44.20;102710.06;4945472;28;99610;-54
2021/04/14 09:17:16;;;;;;;9.90;6.27;;;11.00;88.30;;;11.52;44.24;102716.06;4946721;28;97355;-56
2021/04/14 09:19:53;;;;;;;11.10;7.83;;;11.30;89.30;;;11.37;44.47;102708.25;4941001;28;97148;-54
2021/04/14 09:22:25;;;;;;;10.23;8.17;;;11.10;88.50;;;11.13;44.70;102711.03;4953598;28;96877;-55
2021/04/14 09:25:10;;;;;;;8.73;3.70;;;10.80;88.70;;;11.73;44.42;102708.91;4962958;28;97291;-54
2021/04/14 09:27:39;;;;;;;15.00;10.00;;;11.30;90.80;;;11.51;45.52;102709.03;4955877;28;97377;-53
2021/04/14 09:30:36;;;;;;;14.13;9.37;;;11.20;88.30;;;11.49;46.27;102708.19;4958029;28;97699;-55
2021/04/14 09:33:05;;;;;;;11.47;9.60;;;11.10;88.50;;;11.13;44.42;102711.03;4950012;28;97422;-55
2021/04/14 09:35:31;;;;;;;13.83;10.97;;;10.70;88.70;;;11.05;45.23;102712.84;4944608;28;97738;-55
2021/04/14 09:38:22;;;;;;;17.33;11.17;;;10.70;90.10;;;11.38;44.80;102699.44;4944908;28;97008;-54
2021/04/14 09:40:49;;;;;;;10.60;7.53;;;11.00;90.20;;;11.68;46.40;102700.09;4959515;28;101983;-57
2021/04/14 09:43:27;;;;;;;12.10;8.90;;;11.20;90.70;;;12.45;44.88;102706.47;4953667;28;96826;-54
2021/04/14 09:46:04;;;;;;;12.37;9.87;;;12.20;88.80;;;12.86;41.41;102698.00;4946417;28;96919;-54
2021/04/14 09:48:49;;;;;;;12.70;11.33;;;12.80;85.20;;;12.50;42.91;102704.66;4937785;28;99326;-55
2021/04/14 09:51:23;;;;;;;13.87;12.00;;;12.40;83.60;;;12.33;43.79;102696.03;4945847;28;99087;-54
2021/04/14 09:53:54;;;;;;;12.20;10.90;;;12.00;85.70;;;12.47;42.29;102694.09;4947471;28;97325;-54
2021/04/14 09:56:23;;;;;;;12.80;11.50;;;12.20;85.90;;;12.31;42.47;102700.47;4964944;28;98134;-55
2021/04/14 09:59:13;;;;;;;14.03;12.33;;;12.00;85.90;;;11.91;43.89;102682.31;4964707;28;97752;-52
2021/04/14 10:01:41;;;;;;;14.80;11.83;;;11.50;87.40;;;11.50;43.95;102686.13;4939992;28;97481;-55
2021/04/14 10:04:23;;;;;;;14.60;13.00;;;11.10;88.30;;;11.11;45.35;102682.00;4945499;28;97386;-55
2021/04/14 10:06:53;;;;;;;15.57;12.77;;;10.70;90.10;;;11.01;44.37;102686.47;4940578;28;98779;-54
2021/04/14 10:09:25;;;;;;;14.70;13.03;;;10.60;89.10;;;10.88;44.81;102678.63;4944235;28;97301;-53
2021/04/14 10:11:51;;;;;;;13.87;12.33;;;10.50;89.50;;;10.75;45.54;102682.19;4944908;28;97395;-52
2021/04/14 10:14:24;;;;;;;16.77;12.57;;;10.40;90.20;;;10.56;46.85;102670.81;4947501;28;97831;-53
2021/04/14 10:17:04;;;;;;;18.53;12.77;;;10.30;90.90;;;10.42;47.12;102663.84;4955365;28;98453;-53
2021/04/14 10:19:33;;;;;;;20.57;13.00;;;10.20;91.60;;;10.50;46.31;102666.44;4949567;28;97993;-56
2021/04/14 10:22:16;;;;;;;16.70;12.90;;;10.20;90.70;;;10.50;46.05;102666.44;4943271;28;97269;-54
2021/04/14 10:24:42;;;;;;;13.83;11.50;;;10.30;90.50;;;10.67;46.38;102658.44;4964953;28;97474;-50
2021/04/14 10:27:09;;;;;;;16.27;12.60;;;10.40;90.30;;;11.09;45.96;102656.47;4964577;28;99091;-53